sensor_id;sensor_type;location;lat;lon;timestamp;temperature;humidity
59556;DHT22;45374;52.746;6.304;2023-10-19T00:00:54;8.40;99.90
59556;DHT22;45374;52.746;6.304;2023-10-19T00:03:23;8.40;99.90
59556;DHT22;45374;52.746;6.304;2023-10-19T00:05:49;8.40;99.90
59556;DHT22;45374;52.746;6.304;2023-10-19T00:08:15;8.50;99.90
59556;DHT22;45374;52.746;6.304;2023-10-19T00:10:44;8.50;99.90
59556;DHT22;45374;52.746;6.304;2023-10-19T00:13:11;8.50;99.90
59556;DHT22;45374;52.746;6.304;2023-10-19T00:15:42;8.50;99.90
59556;DHT22;45374;52.746;6.304;2023-10-19T00:18:15;8.40;99.90
59556;DHT22;45374;52.746;6.304;2023-10-19T00:20:42;8.40;99.90
59556;DHT22;45374;52.746;6.304;2023-10-19T00:23:13;8.50;99.90
59556;DHT22;45374;52.746;6.304;2023-10-19T00:25:44;8.40;99.90
59556;DHT22;45374;52.746;6.304;2023-10-19T00:28:10;8.50;99.90
59556;DHT22;45374;52.746;6.304;2023-10-19T00:30:38;8.50;99.90
59556;DHT22;45374;52.746;6.304;2023-10-19T00:33:04;8.50;99.90
59556;DHT22;45374;52.746;6.304;2023-10-19T00:35:34;8.50;99.90
59556;DHT22;45374;52.746;6.304;2023-10-19T00:38:01;8.50;99.90
59556;DHT22;45374;52.746;6.304;2023-10-19T00:40:53;8.50;99.90
59556;DHT22;45374;52.746;6.304;2023-10-19T00:43:29;8.50;99.90
59556;DHT22;45374;52.746;6.304;2023-10-19T00:46:01;8.50;99.90
59556;DHT22;45374;52.746;6.304;2023-10-19T00:48:34;8.50;99.90
59556;DHT22;45374;52.746;6.304;2023-10-19T00:51:00;8.50;99.90
59556;DHT22;45374;52.746;6.304;2023-10-19T00:53:37;8.50;99.90
59556;DHT22;45374;52.746;6.304;2023-10-19T00:56:06;8.50;99.90
59556;DHT22;45374;52.746;6.304;2023-10-19T00:58:35;8.50;99.90
59556;DHT22;45374;52.746;6.304;2023-10-19T01:01:02;8.50;99.90
59556;DHT22;45374;52.746;6.304;2023-10-19T01:03:31;8.50;99.90
59556;DHT22;45374;52.746;6.304;2023-10-19T01:06:03;8.50;99.90
59556;DHT22;45374;52.746;6.304;2023-10-19T01:08:38;8.50;99.90
59556;DHT22;45374;52.746;6.304;2023-10-19T01:11:09;8.50;99.90
59556;DHT22;45374;52.746;6.304;2023-10-19T01:13:38;8.50;99.90
59556;DHT22;45374;52.746;6.304;2023-10-19T01:16:03;8.50;99.90
59556;DHT22;45374;52.746;6.304;2023-10-19T01:18:30;8.50;99.90
59556;DHT22;45374;52.746;6.304;2023-10-19T01:20:59;8.50;99.90
59556;DHT22;45374;52.746;6.304;2023-10-19T01:23:30;8.50;99.90
59556;DHT22;45374;52.746;6.304;2023-10-19T01:25:59;8.50;99.90
59556;DHT22;45374;52.746;6.304;2023-10-19T01:28:27;8.50;99.90
59556;DHT22;45374;52.746;6.304;2023-10-19T01:31:14;8.50;99.90
59556;DHT22;45374;52.746;6.304;2023-10-19T01:33:45;8.60;99.90
59556;DHT22;45374;52.746;6.304;2023-10-19T01:36:12;8.60;99.90
59556;DHT22;45374;52.746;6.304;2023-10-19T01:38:55;8.60;99.90
59556;DHT22;45374;52.746;6.304;2023-10-19T01:41:22;8.60;99.90
59556;DHT22;45374;52.746;6.304;2023-10-19T01:43:50;8.60;99.90
59556;DHT22;45374;52.746;6.304;2023-10-19T01:46:19;8.60;99.90
59556;DHT22;45374;52.746;6.304;2023-10-19T01:48:56;8.60;99.90
59556;DHT22;45374;52.746;6.304;2023-10-19T01:51:23;8.60;99.90
59556;DHT22;45374;52.746;6.304;2023-10-19T01:53:50;8.60;99.90
59556;DHT22;45374;52.746;6.304;2023-10-19T01:56:17;8.70;99.90
59556;DHT22;45374;52.746;6.304;2023-10-19T01:58:44;8.70;99.90
59556;DHT22;45374;52.746;6.304;2023-10-19T02:01:12;8.70;99.90
59556;DHT22;45374;52.746;6.304;2023-10-19T02:03:39;8.70;99.90
59556;DHT22;45374;52.746;6.304;2023-10-19T02:06:09;8.70;99.90
59556;DHT22;45374;52.746;6.304;2023-10-19T02:08:52;8.80;99.90
59556;DHT22;45374;52.746;6.304;2023-10-19T02:11:25;8.80;99.90
59556;DHT22;45374;52.746;6.304;2023-10-19T02:13:53;8.80;99.90
59556;DHT22;45374;52.746;6.304;2023-10-19T02:16:20;8.80;99.90
59556;DHT22;45374;52.746;6.304;2023-10-19T02:18:50;8.80;99.90
59556;DHT22;45374;52.746;6.304;2023-10-19T02:21:16;8.80;99.90
59556;DHT22;45374;52.746;6.304;2023-10-19T02:23:48;8.80;99.90
59556;DHT22;45374;52.746;6.304;2023-10-19T02:26:16;8.80;99.90
59556;DHT22;45374;52.746;6.304;2023-10-19T02:28:42;8.90;99.90
59556;DHT22;45374;52.746;6.304;2023-10-19T02:31:09;8.80;99.90
59556;DHT22;45374;52.746;6.304;2023-10-19T02:33:42;8.90;99.90
59556;DHT22;45374;52.746;6.304;2023-10-19T02:36:13;8.90;99.90
59556;DHT22;45374;52.746;6.304;2023-10-19T02:38:42;8.90;99.90
59556;DHT22;45374;52.746;6.304;2023-10-19T02:41:16;8.90;99.90
59556;DHT22;45374;52.746;6.304;2023-10-19T02:43:46;8.90;99.90
59556;DHT22;45374;52.746;6.304;2023-10-19T02:46:17;8.90;99.90
59556;DHT22;45374;52.746;6.304;2023-10-19T02:48:45;8.90;99.90
59556;DHT22;45374;52.746;6.304;2023-10-19T02:51:13;8.90;99.90
59556;DHT22;45374;52.746;6.304;2023-10-19T02:53:39;8.90;99.90
59556;DHT22;45374;52.746;6.304;2023-10-19T02:56:13;8.90;99.90
59556;DHT22;45374;52.746;6.304;2023-10-19T02:58:41;9.00;99.90
59556;DHT22;45374;52.746;6.304;2023-10-19T03:01:21;9.00;99.90
59556;DHT22;45374;52.746;6.304;2023-10-19T03:03:54;9.00;99.90
59556;DHT22;45374;52.746;6.304;2023-10-19T03:06:23;9.00;99.90
59556;DHT22;45374;52.746;6.304;2023-10-19T03:08:50;9.00;99.90
59556;DHT22;45374;52.746;6.304;2023-10-19T03:11:30;9.10;99.90
59556;DHT22;45374;52.746;6.304;2023-10-19T03:13:58;9.00;99.90
59556;DHT22;45374;52.746;6.304;2023-10-19T03:16:24;9.00;99.90
59556;DHT22;45374;52.746;6.304;2023-10-19T03:18:50;9.10;99.90
59556;DHT22;45374;52.746;6.304;2023-10-19T03:21:19;9.10;99.90
59556;DHT22;45374;52.746;6.304;2023-10-19T03:23:49;9.10;99.90
59556;DHT22;45374;52.746;6.304;2023-10-19T03:26:15;9.10;99.90
59556;DHT22;45374;52.746;6.304;2023-10-19T03:29:04;9.10;99.90
59556;DHT22;45374;52.746;6.304;2023-10-19T03:31:33;9.20;99.90
59556;DHT22;45374;52.746;6.304;2023-10-19T03:34:03;9.20;99.90
59556;DHT22;45374;52.746;6.304;2023-10-19T03:36:31;9.20;99.90
59556;DHT22;45374;52.746;6.304;2023-10-19T03:38:58;9.20;99.90
59556;DHT22;45374;52.746;6.304;2023-10-19T03:41:30;9.20;99.90
59556;DHT22;45374;52.746;6.304;2023-10-19T03:44:01;9.20;99.90
59556;DHT22;45374;52.746;6.304;2023-10-19T03:46:27;9.20;99.90
59556;DHT22;45374;52.746;6.304;2023-10-19T03:49:03;9.30;99.90
59556;DHT22;45374;52.746;6.304;2023-10-19T03:51:38;9.20;99.90
59556;DHT22;45374;52.746;6.304;2023-10-19T03:54:26;9.30;99.90
59556;DHT22;45374;52.746;6.304;2023-10-19T03:56:53;9.30;99.90
59556;DHT22;45374;52.746;6.304;2023-10-19T03:59:19;9.30;99.90
59556;DHT22;45374;52.746;6.304;2023-10-19T04:01:48;9.30;99.90
59556;DHT22;45374;52.746;6.304;2023-10-19T04:04:14;9.30;99.90
59556;DHT22;45374;52.746;6.304;2023-10-19T04:06:41;9.40;99.90
59556;DHT22;45374;52.746;6.304;2023-10-19T04:09:12;9.40;99.90
59556;DHT22;45374;52.746;6.304;2023-10-19T04:11:41;9.40;99.90
59556;DHT22;45374;52.746;6.304;2023-10-19T04:14:16;9.40;99.90
59556;DHT22;45374;52.746;6.304;2023-10-19T04:16:43;9.40;99.90
59556;DHT22;45374;52.746;6.304;2023-10-19T04:19:12;9.50;99.90
59556;DHT22;45374;52.746;6.304;2023-10-19T04:21:39;9.50;99.90
59556;DHT22;45374;52.746;6.304;2023-10-19T04:24:07;9.50;99.90
59556;DHT22;45374;52.746;6.304;2023-10-19T04:26:37;9.50;99.90
59556;DHT22;45374;52.746;6.304;2023-10-19T04:29:03;9.50;99.90
59556;DHT22;45374;52.746;6.304;2023-10-19T04:31:38;9.50;99.90
59556;DHT22;45374;52.746;6.304;2023-10-19T04:34:14;9.60;99.90
59556;DHT22;45374;52.746;6.304;2023-10-19T04:36:42;9.60;99.90
59556;DHT22;45374;52.746;6.304;2023-10-19T04:39:08;9.60;99.90
59556;DHT22;45374;52.746;6.304;2023-10-19T04:41:37;9.60;99.90
59556;DHT22;45374;52.746;6.304;2023-10-19T04:44:03;9.70;99.90
59556;DHT22;45374;52.746;6.304;2023-10-19T04:46:28;9.70;99.90
59556;DHT22;45374;52.746;6.304;2023-10-19T04:48:54;9.70;99.90
59556;DHT22;45374;52.746;6.304;2023-10-19T04:51:20;9.70;99.90
59556;DHT22;45374;52.746;6.304;2023-10-19T04:53:46;9.70;99.90
59556;DHT22;45374;52.746;6.304;2023-10-19T04:56:11;9.80;99.90
59556;DHT22;45374;52.746;6.304;2023-10-19T04:58:38;9.80;99.90
59556;DHT22;45374;52.746;6.304;2023-10-19T05:01:04;9.80;99.90
59556;DHT22;45374;52.746;6.304;2023-10-19T05:03:30;9.80;99.90
59556;DHT22;45374;52.746;6.304;2023-10-19T05:05:56;9.90;99.90
59556;DHT22;45374;52.746;6.304;2023-10-19T05:08:23;9.90;99.90
59556;DHT22;45374;52.746;6.304;2023-10-19T05:10:54;9.90;99.90
59556;DHT22;45374;52.746;6.304;2023-10-19T05:13:23;9.90;99.90
59556;DHT22;45374;52.746;6.304;2023-10-19T05:15:54;9.90;99.90
59556;DHT22;45374;52.746;6.304;2023-10-19T05:18:20;9.90;99.90
59556;DHT22;45374;52.746;6.304;2023-10-19T05:20:46;9.90;99.90
59556;DHT22;45374;52.746;6.304;2023-10-19T05:23:12;10.00;99.90
59556;DHT22;45374;52.746;6.304;2023-10-19T05:25:40;10.00;99.90
59556;DHT22;45374;52.746;6.304;2023-10-19T05:28:06;10.00;99.90
59556;DHT22;45374;52.746;6.304;2023-10-19T05:30:33;10.00;99.90
59556;DHT22;45374;52.746;6.304;2023-10-19T05:32:59;10.00;99.90
59556;DHT22;45374;52.746;6.304;2023-10-19T05:35:28;10.10;99.90
59556;DHT22;45374;52.746;6.304;2023-10-19T05:37:54;10.10;99.90
59556;DHT22;45374;52.746;6.304;2023-10-19T05:40:24;10.10;99.90
59556;DHT22;45374;52.746;6.304;2023-10-19T05:42:56;10.10;99.90
59556;DHT22;45374;52.746;6.304;2023-10-19T05:45:22;10.10;99.90
59556;DHT22;45374;52.746;6.304;2023-10-19T05:47:47;10.10;99.90
59556;DHT22;45374;52.746;6.304;2023-10-19T05:50:13;10.10;99.90
59556;DHT22;45374;52.746;6.304;2023-10-19T05:52:43;10.20;99.90
59556;DHT22;45374;52.746;6.304;2023-10-19T05:55:09;10.20;99.90
59556;DHT22;45374;52.746;6.304;2023-10-19T05:57:37;10.20;99.90
59556;DHT22;45374;52.746;6.304;2023-10-19T06:00:07;10.20;99.90
59556;DHT22;45374;52.746;6.304;2023-10-19T06:02:33;10.20;99.90
59556;DHT22;45374;52.746;6.304;2023-10-19T06:05:00;10.30;99.90
59556;DHT22;45374;52.746;6.304;2023-10-19T06:07:26;10.30;99.90
59556;DHT22;45374;52.746;6.304;2023-10-19T06:09:52;10.30;99.90
59556;DHT22;45374;52.746;6.304;2023-10-19T06:12:17;10.30;99.90
59556;DHT22;45374;52.746;6.304;2023-10-19T06:14:43;10.40;99.90
59556;DHT22;45374;52.746;6.304;2023-10-19T06:17:08;10.40;99.90
59556;DHT22;45374;52.746;6.304;2023-10-19T06:19:34;10.40;99.90
59556;DHT22;45374;52.746;6.304;2023-10-19T06:21:59;10.40;99.90
59556;DHT22;45374;52.746;6.304;2023-10-19T06:24:25;10.40;99.90
59556;DHT22;45374;52.746;6.304;2023-10-19T06:26:50;10.50;99.90
59556;DHT22;45374;52.746;6.304;2023-10-19T06:29:18;10.50;99.90
59556;DHT22;45374;52.746;6.304;2023-10-19T06:31:43;10.50;99.90
59556;DHT22;45374;52.746;6.304;2023-10-19T06:34:09;10.50;99.90
59556;DHT22;45374;52.746;6.304;2023-10-19T06:36:36;10.60;99.90
59556;DHT22;45374;52.746;6.304;2023-10-19T06:39:01;10.60;99.90
59556;DHT22;45374;52.746;6.304;2023-10-19T06:41:31;10.60;99.90
59556;DHT22;45374;52.746;6.304;2023-10-19T06:43:57;10.60;99.90
59556;DHT22;45374;52.746;6.304;2023-10-19T06:46:24;10.70;99.90
59556;DHT22;45374;52.746;6.304;2023-10-19T06:48:49;10.70;99.90
59556;DHT22;45374;52.746;6.304;2023-10-19T06:51:16;10.70;99.90
59556;DHT22;45374;52.746;6.304;2023-10-19T06:53:42;10.80;99.90
59556;DHT22;45374;52.746;6.304;2023-10-19T06:56:07;10.80;99.90
59556;DHT22;45374;52.746;6.304;2023-10-19T06:58:33;10.80;99.90
59556;DHT22;45374;52.746;6.304;2023-10-19T07:00:59;10.80;99.90
59556;DHT22;45374;52.746;6.304;2023-10-19T07:03:26;10.90;99.90
59556;DHT22;45374;52.746;6.304;2023-10-19T07:05:53;10.90;99.90
59556;DHT22;45374;52.746;6.304;2023-10-19T07:08:19;10.90;99.90
59556;DHT22;45374;52.746;6.304;2023-10-19T07:10:46;11.00;99.90
59556;DHT22;45374;52.746;6.304;2023-10-19T07:13:12;11.00;99.90
59556;DHT22;45374;52.746;6.304;2023-10-19T07:15:37;11.10;99.90
59556;DHT22;45374;52.746;6.304;2023-10-19T07:18:06;11.10;99.90
59556;DHT22;45374;52.746;6.304;2023-10-19T07:20:32;11.10;99.90
59556;DHT22;45374;52.746;6.304;2023-10-19T07:22:59;11.20;99.90
59556;DHT22;45374;52.746;6.304;2023-10-19T07:25:28;11.20;99.90
59556;DHT22;45374;52.746;6.304;2023-10-19T07:27:55;11.10;99.90
59556;DHT22;45374;52.746;6.304;2023-10-19T07:30:21;11.10;99.90
59556;DHT22;45374;52.746;6.304;2023-10-19T07:32:48;11.20;99.90
59556;DHT22;45374;52.746;6.304;2023-10-19T07:35:18;11.20;99.90
59556;DHT22;45374;52.746;6.304;2023-10-19T07:37:44;11.30;99.90
59556;DHT22;45374;52.746;6.304;2023-10-19T07:40:10;11.30;99.90
59556;DHT22;45374;52.746;6.304;2023-10-19T07:42:40;11.30;99.90
59556;DHT22;45374;52.746;6.304;2023-10-19T07:45:06;11.30;99.90
59556;DHT22;45374;52.746;6.304;2023-10-19T07:47:35;11.40;99.90
59556;DHT22;45374;52.746;6.304;2023-10-19T07:50:01;11.40;99.90
59556;DHT22;45374;52.746;6.304;2023-10-19T07:52:28;11.50;99.90
59556;DHT22;45374;52.746;6.304;2023-10-19T07:54:53;11.40;99.90
59556;DHT22;45374;52.746;6.304;2023-10-19T07:57:19;11.50;99.90
59556;DHT22;45374;52.746;6.304;2023-10-19T07:59:45;11.50;99.90
59556;DHT22;45374;52.746;6.304;2023-10-19T08:02:13;11.50;99.90
59556;DHT22;45374;52.746;6.304;2023-10-19T08:04:38;11.60;99.90
59556;DHT22;45374;52.746;6.304;2023-10-19T08:07:04;11.60;99.90
59556;DHT22;45374;52.746;6.304;2023-10-19T08:09:31;11.60;99.90
59556;DHT22;45374;52.746;6.304;2023-10-19T08:12:00;11.60;99.90
59556;DHT22;45374;52.746;6.304;2023-10-19T08:14:28;11.60;99.90
59556;DHT22;45374;52.746;6.304;2023-10-19T08:16:53;11.70;99.90
59556;DHT22;45374;52.746;6.304;2023-10-19T08:19:19;11.70;99.90
59556;DHT22;45374;52.746;6.304;2023-10-19T08:21:45;11.70;99.90
59556;DHT22;45374;52.746;6.304;2023-10-19T08:24:12;11.80;99.90
59556;DHT22;45374;52.746;6.304;2023-10-19T08:26:39;11.80;99.90
59556;DHT22;45374;52.746;6.304;2023-10-19T08:29:07;11.90;99.90
59556;DHT22;45374;52.746;6.304;2023-10-19T08:31:39;11.90;99.90
59556;DHT22;45374;52.746;6.304;2023-10-19T08:34:05;12.00;99.90
59556;DHT22;45374;52.746;6.304;2023-10-19T08:36:31;12.00;99.90
59556;DHT22;45374;52.746;6.304;2023-10-19T08:38:57;12.00;99.90
59556;DHT22;45374;52.746;6.304;2023-10-19T08:41:22;12.00;99.90
59556;DHT22;45374;52.746;6.304;2023-10-19T08:43:48;12.10;99.90
59556;DHT22;45374;52.746;6.304;2023-10-19T08:46:15;12.10;99.90
59556;DHT22;45374;52.746;6.304;2023-10-19T08:48:42;12.10;99.90
59556;DHT22;45374;52.746;6.304;2023-10-19T08:51:11;12.20;99.90
59556;DHT22;45374;52.746;6.304;2023-10-19T08:53:37;12.20;99.90
59556;DHT22;45374;52.746;6.304;2023-10-19T08:56:06;12.30;99.90
59556;DHT22;45374;52.746;6.304;2023-10-19T08:58:32;12.30;99.90
59556;DHT22;45374;52.746;6.304;2023-10-19T09:00:58;12.40;99.90
59556;DHT22;45374;52.746;6.304;2023-10-19T09:03:32;12.50;99.90
59556;DHT22;45374;52.746;6.304;2023-10-19T09:06:01;12.50;99.90
59556;DHT22;45374;52.746;6.304;2023-10-19T09:08:27;12.50;99.90
59556;DHT22;45374;52.746;6.304;2023-10-19T09:11:09;12.60;99.90
59556;DHT22;45374;52.746;6.304;2023-10-19T09:13:47;12.70;99.90
59556;DHT22;45374;52.746;6.304;2023-10-19T09:16:18;12.80;99.90
59556;DHT22;45374;52.746;6.304;2023-10-19T09:18:43;12.80;99.90
59556;DHT22;45374;52.746;6.304;2023-10-19T09:21:10;12.80;99.90
59556;DHT22;45374;52.746;6.304;2023-10-19T09:23:46;12.90;99.90
59556;DHT22;45374;52.746;6.304;2023-10-19T09:26:13;12.90;99.90
59556;DHT22;45374;52.746;6.304;2023-10-19T09:28:39;12.90;99.90
59556;DHT22;45374;52.746;6.304;2023-10-19T09:31:05;13.00;99.90
59556;DHT22;45374;52.746;6.304;2023-10-19T09:33:34;13.00;99.90
59556;DHT22;45374;52.746;6.304;2023-10-19T09:36:04;13.00;99.90
59556;DHT22;45374;52.746;6.304;2023-10-19T09:38:31;13.00;99.90
59556;DHT22;45374;52.746;6.304;2023-10-19T09:40:58;13.00;99.90
59556;DHT22;45374;52.746;6.304;2023-10-19T09:43:37;13.00;99.90
59556;DHT22;45374;52.746;6.304;2023-10-19T09:46:07;13.00;99.90
59556;DHT22;45374;52.746;6.304;2023-10-19T09:48:42;13.00;99.90
59556;DHT22;45374;52.746;6.304;2023-10-19T09:51:08;13.10;99.90
59556;DHT22;45374;52.746;6.304;2023-10-19T09:53:35;13.10;99.90
59556;DHT22;45374;52.746;6.304;2023-10-19T09:56:04;13.10;99.90
59556;DHT22;45374;52.746;6.304;2023-10-19T09:58:36;13.10;99.90
59556;DHT22;45374;52.746;6.304;2023-10-19T10:01:04;13.20;99.90
59556;DHT22;45374;52.746;6.304;2023-10-19T10:03:47;13.20;99.90
59556;DHT22;45374;52.746;6.304;2023-10-19T10:06:15;13.30;99.90
59556;DHT22;45374;52.746;6.304;2023-10-19T10:08:43;13.30;99.90
59556;DHT22;45374;52.746;6.304;2023-10-19T10:13:47;13.40;99.90
59556;DHT22;45374;52.746;6.304;2023-10-19T10:16:24;13.50;99.90
59556;DHT22;45374;52.746;6.304;2023-10-19T10:18:51;13.60;99.90
59556;DHT22;45374;52.746;6.304;2023-10-19T10:21:23;13.70;99.90
59556;DHT22;45374;52.746;6.304;2023-10-19T10:23:55;13.70;99.90
59556;DHT22;45374;52.746;6.304;2023-10-19T10:26:23;13.80;99.90
59556;DHT22;45374;52.746;6.304;2023-10-19T10:31:44;14.00;99.90
59556;DHT22;45374;52.746;6.304;2023-10-19T10:34:41;14.10;99.90
59556;DHT22;45374;52.746;6.304;2023-10-19T10:37:05;14.10;99.90
59556;DHT22;45374;52.746;6.304;2023-10-19T10:39:33;14.20;99.90
59556;DHT22;45374;52.746;6.304;2023-10-19T10:42:05;14.30;99.90
59556;DHT22;45374;52.746;6.304;2023-10-19T10:44:45;14.30;99.90
59556;DHT22;45374;52.746;6.304;2023-10-19T10:47:15;14.40;99.90
59556;DHT22;45374;52.746;6.304;2023-10-19T10:49:49;14.40;99.90
59556;DHT22;45374;52.746;6.304;2023-10-19T10:52:35;14.40;99.90
59556;DHT22;45374;52.746;6.304;2023-10-19T10:55:12;14.50;99.90
59556;DHT22;45374;52.746;6.304;2023-10-19T10:57:38;14.40;99.90
59556;DHT22;45374;52.746;6.304;2023-10-19T11:00:08;14.40;99.90
59556;DHT22;45374;52.746;6.304;2023-10-19T11:02:38;14.40;99.90
59556;DHT22;45374;52.746;6.304;2023-10-19T11:05:15;14.40;99.90
59556;DHT22;45374;52.746;6.304;2023-10-19T11:10:36;14.50;99.90
59556;DHT22;45374;52.746;6.304;2023-10-19T11:13:06;14.60;99.90
59556;DHT22;45374;52.746;6.304;2023-10-19T11:15:36;14.60;99.90
59556;DHT22;45374;52.746;6.304;2023-10-19T11:18:02;14.70;99.90
59556;DHT22;45374;52.746;6.304;2023-10-19T11:20:29;14.80;99.90
59556;DHT22;45374;52.746;6.304;2023-10-19T11:22:55;14.80;99.90
59556;DHT22;45374;52.746;6.304;2023-10-19T11:25:29;14.90;99.90
59556;DHT22;45374;52.746;6.304;2023-10-19T11:27:59;15.00;99.90
59556;DHT22;45374;52.746;6.304;2023-10-19T11:30:30;15.10;99.90
59556;DHT22;45374;52.746;6.304;2023-10-19T11:32:59;15.10;99.90
59556;DHT22;45374;52.746;6.304;2023-10-19T11:35:28;15.20;99.90
59556;DHT22;45374;52.746;6.304;2023-10-19T11:37:59;15.30;99.90
59556;DHT22;45374;52.746;6.304;2023-10-19T11:40:25;15.40;99.90
59556;DHT22;45374;52.746;6.304;2023-10-19T11:42:52;15.40;99.90
59556;DHT22;45374;52.746;6.304;2023-10-19T11:45:21;15.40;99.90
59556;DHT22;45374;52.746;6.304;2023-10-19T11:47:49;15.40;99.90
59556;DHT22;45374;52.746;6.304;2023-10-19T11:50:16;15.40;99.90
59556;DHT22;45374;52.746;6.304;2023-10-19T11:52:42;15.40;99.90
59556;DHT22;45374;52.746;6.304;2023-10-19T11:55:08;15.40;99.90
59556;DHT22;45374;52.746;6.304;2023-10-19T11:57:34;15.30;99.90
59556;DHT22;45374;52.746;6.304;2023-10-19T12:00:04;15.30;99.90
59556;DHT22;45374;52.746;6.304;2023-10-19T12:02:39;15.20;99.90
59556;DHT22;45374;52.746;6.304;2023-10-19T12:05:07;15.20;99.90
59556;DHT22;45374;52.746;6.304;2023-10-19T12:07:39;15.20;99.90
59556;DHT22;45374;52.746;6.304;2023-10-19T12:10:07;15.20;99.90
59556;DHT22;45374;52.746;6.304;2023-10-19T12:12:34;15.20;99.90
59556;DHT22;45374;52.746;6.304;2023-10-19T12:14:59;15.20;99.90
59556;DHT22;45374;52.746;6.304;2023-10-19T12:17:25;15.20;99.90
59556;DHT22;45374;52.746;6.304;2023-10-19T12:19:53;15.10;99.90
59556;DHT22;45374;52.746;6.304;2023-10-19T12:22:19;15.10;99.90
59556;DHT22;45374;52.746;6.304;2023-10-19T12:24:46;15.10;99.90
59556;DHT22;45374;52.746;6.304;2023-10-19T12:27:12;15.00;99.90
59556;DHT22;45374;52.746;6.304;2023-10-19T12:29:39;15.00;99.90
59556;DHT22;45374;52.746;6.304;2023-10-19T12:32:05;14.90;99.90
59556;DHT22;45374;52.746;6.304;2023-10-19T12:34:31;14.90;99.90
59556;DHT22;45374;52.746;6.304;2023-10-19T12:36:57;14.90;99.90
59556;DHT22;45374;52.746;6.304;2023-10-19T12:39:25;14.90;99.90
59556;DHT22;45374;52.746;6.304;2023-10-19T12:42:09;14.80;99.90
59556;DHT22;45374;52.746;6.304;2023-10-19T12:44:35;14.90;99.90
59556;DHT22;45374;52.746;6.304;2023-10-19T12:47:10;14.90;99.90
59556;DHT22;45374;52.746;6.304;2023-10-19T12:49:42;14.80;99.90
59556;DHT22;45374;52.746;6.304;2023-10-19T12:52:10;14.80;99.90
59556;DHT22;45374;52.746;6.304;2023-10-19T12:54:37;14.70;99.90
59556;DHT22;45374;52.746;6.304;2023-10-19T12:57:05;14.70;99.90
59556;DHT22;45374;52.746;6.304;2023-10-19T12:59:36;14.70;99.90
59556;DHT22;45374;52.746;6.304;2023-10-19T13:02:05;14.70;99.90
59556;DHT22;45374;52.746;6.304;2023-10-19T13:04:34;14.70;99.90
59556;DHT22;45374;52.746;6.304;2023-10-19T13:06:59;14.70;99.90
59556;DHT22;45374;52.746;6.304;2023-10-19T13:09:26;14.60;99.90
59556;DHT22;45374;52.746;6.304;2023-10-19T13:11:58;14.60;99.90
59556;DHT22;45374;52.746;6.304;2023-10-19T13:14:24;14.60;99.90
59556;DHT22;45374;52.746;6.304;2023-10-19T13:16:50;14.60;99.90
59556;DHT22;45374;52.746;6.304;2023-10-19T13:19:18;14.60;99.90
59556;DHT22;45374;52.746;6.304;2023-10-19T13:21:49;14.60;99.90
59556;DHT22;45374;52.746;6.304;2023-10-19T13:24:16;14.60;99.90
59556;DHT22;45374;52.746;6.304;2023-10-19T13:26:43;14.60;99.90
59556;DHT22;45374;52.746;6.304;2023-10-19T13:29:12;14.60;99.90
59556;DHT22;45374;52.746;6.304;2023-10-19T13:31:37;14.60;99.90
59556;DHT22;45374;52.746;6.304;2023-10-19T13:34:03;14.60;99.90
59556;DHT22;45374;52.746;6.304;2023-10-19T13:36:36;14.60;99.90
59556;DHT22;45374;52.746;6.304;2023-10-19T13:39:01;14.50;99.90
59556;DHT22;45374;52.746;6.304;2023-10-19T13:41:27;14.40;99.90
59556;DHT22;45374;52.746;6.304;2023-10-19T13:43:52;14.40;99.90
59556;DHT22;45374;52.746;6.304;2023-10-19T13:46:18;14.40;99.90
59556;DHT22;45374;52.746;6.304;2023-10-19T13:48:43;14.30;99.90
59556;DHT22;45374;52.746;6.304;2023-10-19T13:51:10;14.20;99.90
59556;DHT22;45374;52.746;6.304;2023-10-19T13:53:39;14.10;99.90
59556;DHT22;45374;52.746;6.304;2023-10-19T13:56:09;14.10;99.90
59556;DHT22;45374;52.746;6.304;2023-10-19T13:58:35;14.00;99.90
59556;DHT22;45374;52.746;6.304;2023-10-19T14:01:01;14.00;99.90
59556;DHT22;45374;52.746;6.304;2023-10-19T14:03:26;14.00;99.90
59556;DHT22;45374;52.746;6.304;2023-10-19T14:05:52;14.00;99.90
59556;DHT22;45374;52.746;6.304;2023-10-19T14:08:21;13.90;99.90
59556;DHT22;45374;52.746;6.304;2023-10-19T14:10:47;13.90;99.90
59556;DHT22;45374;52.746;6.304;2023-10-19T14:13:13;13.80;99.90
59556;DHT22;45374;52.746;6.304;2023-10-19T14:15:40;13.80;99.90
59556;DHT22;45374;52.746;6.304;2023-10-19T14:18:06;13.70;99.90
59556;DHT22;45374;52.746;6.304;2023-10-19T14:20:32;13.70;99.90
59556;DHT22;45374;52.746;6.304;2023-10-19T14:23:00;13.70;99.90
59556;DHT22;45374;52.746;6.304;2023-10-19T14:25:25;13.60;99.90
59556;DHT22;45374;52.746;6.304;2023-10-19T14:27:54;13.60;99.90
59556;DHT22;45374;52.746;6.304;2023-10-19T14:30:24;13.60;99.90
59556;DHT22;45374;52.746;6.304;2023-10-19T14:32:50;13.50;99.90
59556;DHT22;45374;52.746;6.304;2023-10-19T14:35:18;13.50;99.90
59556;DHT22;45374;52.746;6.304;2023-10-19T14:37:46;13.50;99.90
59556;DHT22;45374;52.746;6.304;2023-10-19T14:40:21;13.40;99.90
59556;DHT22;45374;52.746;6.304;2023-10-19T14:42:47;13.40;99.90
59556;DHT22;45374;52.746;6.304;2023-10-19T14:45:17;13.40;99.90
59556;DHT22;45374;52.746;6.304;2023-10-19T14:47:47;13.30;99.90
59556;DHT22;45374;52.746;6.304;2023-10-19T14:50:14;13.30;99.90
59556;DHT22;45374;52.746;6.304;2023-10-19T14:52:41;13.30;99.90
59556;DHT22;45374;52.746;6.304;2023-10-19T14:55:08;13.30;99.90
59556;DHT22;45374;52.746;6.304;2023-10-19T14:57:35;13.20;99.90
59556;DHT22;45374;52.746;6.304;2023-10-19T15:00:04;13.20;99.90
59556;DHT22;45374;52.746;6.304;2023-10-19T15:02:41;13.20;99.90
59556;DHT22;45374;52.746;6.304;2023-10-19T15:05:08;13.10;99.90
59556;DHT22;45374;52.746;6.304;2023-10-19T15:07:34;13.10;99.90
59556;DHT22;45374;52.746;6.304;2023-10-19T15:10:01;13.10;99.90
59556;DHT22;45374;52.746;6.304;2023-10-19T15:12:27;13.00;99.90
59556;DHT22;45374;52.746;6.304;2023-10-19T15:14:53;13.00;99.90
59556;DHT22;45374;52.746;6.304;2023-10-19T15:17:19;13.00;99.90
59556;DHT22;45374;52.746;6.304;2023-10-19T15:19:44;13.00;99.90
59556;DHT22;45374;52.746;6.304;2023-10-19T15:22:10;13.00;99.90
59556;DHT22;45374;52.746;6.304;2023-10-19T15:24:35;12.90;99.90
59556;DHT22;45374;52.746;6.304;2023-10-19T15:27:01;12.90;99.90
59556;DHT22;45374;52.746;6.304;2023-10-19T15:29:27;12.80;99.90
59556;DHT22;45374;52.746;6.304;2023-10-19T15:31:54;12.90;99.90
59556;DHT22;45374;52.746;6.304;2023-10-19T15:34:21;12.80;99.90
59556;DHT22;45374;52.746;6.304;2023-10-19T15:36:46;12.80;99.90
59556;DHT22;45374;52.746;6.304;2023-10-19T15:39:12;12.70;99.90
59556;DHT22;45374;52.746;6.304;2023-10-19T15:41:37;12.70;99.90
59556;DHT22;45374;52.746;6.304;2023-10-19T15:44:03;12.70;99.90
59556;DHT22;45374;52.746;6.304;2023-10-19T15:46:29;12.70;99.90
59556;DHT22;45374;52.746;6.304;2023-10-19T15:48:57;12.70;99.90
59556;DHT22;45374;52.746;6.304;2023-10-19T15:51:22;12.60;99.90